createdAt,value
2023-02-20T00:00:55.647Z,76.84
2023-02-20T00:03:22.769Z,76.40
2023-02-20T00:05:49.553Z,75.97
2023-02-20T00:08:16.702Z,76.51
2023-02-20T00:10:43.648Z,76.27
2023-02-20T00:13:13.615Z,75.83
2023-02-20T00:15:40.566Z,76.52
2023-02-20T00:18:10.237Z,76.45
2023-02-20T00:20:37.737Z,76.26
2023-02-20T00:23:04.665Z,76.85
2023-02-20T00:25:31.610Z,75.87
2023-02-20T00:27:58.625Z,75.66
2023-02-20T00:30:25.665Z,76.49
2023-02-20T00:32:57.138Z,77.04
2023-02-20T00:35:25.736Z,75.89
2023-02-20T00:37:53.689Z,76.51
2023-02-20T00:40:28.114Z,76.90
2023-02-20T00:42:55.098Z,76.89
2023-02-20T00:45:22.288Z,76.60
2023-02-20T00:47:49.249Z,76.91
2023-02-20T00:50:17.954Z,76.64
2023-02-20T00:52:44.925Z,76.38
2023-02-20T00:55:12.596Z,77.51
2023-02-20T00:57:39.614Z,77.11
2023-02-20T01:00:08.682Z,76.79
2023-02-20T01:02:35.629Z,77.62
2023-02-20T01:05:02.609Z,78.09
2023-02-20T01:07:32.344Z,77.28
2023-02-20T01:09:59.257Z,76.77
2023-02-20T01:12:26.241Z,76.63
2023-02-20T01:14:53.142Z,76.43
2023-02-20T01:17:21.154Z,76.38
2023-02-20T01:19:48.240Z,76.05
2023-02-20T01:22:15.189Z,76.45
2023-02-20T01:24:43.610Z,75.63
2023-02-20T01:27:10.813Z,75.88
2023-02-20T01:29:37.764Z,75.64
2023-02-20T01:32:05.066Z,75.84
2023-02-20T01:34:32.200Z,76.25
2023-02-20T01:37:00.442Z,77.01
2023-02-20T01:39:29.222Z,76.49
2023-02-20T01:41:59.962Z,77.23
2023-02-20T01:44:31.035Z,76.80
2023-02-20T01:46:59.792Z,76.81
2023-02-20T01:49:46.126Z,76.67
2023-02-20T01:52:32.208Z,76.96
2023-02-20T01:55:02.160Z,76.71
2023-02-20T01:57:32.788Z,76.30
2023-02-20T02:00:10.735Z,77.21
2023-02-20T02:02:41.918Z,76.59
2023-02-20T02:05:12.014Z,76.83
2023-02-20T02:07:39.961Z,77.39
2023-02-20T02:10:16.732Z,76.03
2023-02-20T02:12:47.895Z,76.86
2023-02-20T02:15:17.518Z,76.59
2023-02-20T02:18:08.139Z,75.89
2023-02-20T02:21:15.172Z,77.25
2023-02-20T02:24:12.390Z,76.74
2023-02-20T02:27:16.710Z,76.95
2023-02-20T02:30:36.476Z,76.34
2023-02-20T02:33:37.125Z,76.25
2023-02-20T02:36:31.319Z,76.18
2023-02-20T02:39:36.651Z,76.65
2023-02-20T02:42:09.516Z,76.94
2023-02-20T02:44:49.461Z,77.13
2023-02-20T02:47:23.760Z,77.42
2023-02-20T02:50:00.028Z,77.53
2023-02-20T02:52:41.460Z,77.46
2023-02-20T02:55:10.233Z,77.96
2023-02-20T02:57:37.046Z,77.80
2023-02-20T03:00:12.501Z,77.24
2023-02-20T03:03:10.169Z,77.24
2023-02-20T03:05:46.599Z,76.90
2023-02-20T03:08:43.561Z,77.49
2023-02-20T03:11:15.519Z,77.06
2023-02-20T03:14:24.142Z,77.06
2023-02-20T03:17:02.037Z,76.63
2023-02-20T03:19:36.036Z,76.77
2023-02-20T03:22:09.750Z,76.81
2023-02-20T03:24:55.540Z,76.84
2023-02-20T03:27:43.400Z,76.76
2023-02-20T03:30:18.530Z,76.83
2023-02-20T03:33:08.430Z,77.27
2023-02-20T03:35:57.887Z,77.00
2023-02-20T03:38:44.147Z,77.85
2023-02-20T03:41:34.708Z,77.76
2023-02-20T03:44:04.872Z,77.85
2023-02-20T03:46:36.656Z,78.22
2023-02-20T03:49:12.980Z,77.53
2023-02-20T03:51:41.697Z,77.45
2023-02-20T03:54:09.348Z,77.49
2023-02-20T03:56:42.354Z,77.38
2023-02-20T03:59:18.637Z,77.23
2023-02-20T04:01:49.490Z,77.22
2023-02-20T04:04:27.117Z,77.86
2023-02-20T04:06:54.696Z,78.52
2023-02-20T04:09:24.423Z,78.72
2023-02-20T04:11:57.074Z,78.62
2023-02-20T04:14:27.851Z,79.43
2023-02-20T04:17:03.846Z,79.09
2023-02-20T04:19:31.273Z,78.99
2023-02-20T04:22:04.907Z,79.96
2023-02-20T04:24:37.511Z,79.30
2023-02-20T04:27:04.771Z,78.94
2023-02-20T04:29:31.774Z,79.68
2023-02-20T04:31:59.035Z,79.19
2023-02-20T04:34:26.257Z,79.57
2023-02-20T04:37:08.071Z,80.21
2023-02-20T04:39:35.183Z,79.69
2023-02-20T04:42:02.077Z,80.07
2023-02-20T04:44:31.553Z,79.50
2023-02-20T04:47:03.987Z,79.72
2023-02-20T04:49:31.001Z,79.77
2023-02-20T04:51:58.092Z,80.34
2023-02-20T04:54:25.253Z,79.93
2023-02-20T04:56:52.722Z,79.27
2023-02-20T04:59:19.894Z,79.94
2023-02-20T05:01:49.692Z,79.00
2023-02-20T05:04:17.151Z,79.19
2023-02-20T05:06:46.703Z,80.03
2023-02-20T05:09:14.752Z,79.79
2023-02-20T05:11:42.411Z,79.40
2023-02-20T05:14:09.608Z,79.41
2023-02-20T05:16:40.096Z,78.79
2023-02-20T05:19:08.392Z,79.48
2023-02-20T05:21:54.352Z,79.79
2023-02-20T05:24:21.977Z,79.47
2023-02-20T05:26:49.027Z,80.03
2023-02-20T05:29:15.997Z,79.40
2023-02-20T05:31:43.205Z,79.18
2023-02-20T05:34:10.108Z,79.51
2023-02-20T05:36:36.926Z,80.16
2023-02-20T05:39:05.101Z,79.63
2023-02-20T05:41:32.551Z,79.18
2023-02-20T05:44:00.187Z,79.39
2023-02-20T05:46:28.351Z,78.99
2023-02-20T05:48:55.636Z,78.55
2023-02-20T05:51:25.720Z,79.83
2023-02-20T05:53:52.924Z,79.28
2023-02-20T05:56:20.586Z,78.90
2023-02-20T05:58:47.940Z,79.64
2023-02-20T06:01:22.883Z,79.38
2023-02-20T06:03:49.923Z,79.98
2023-02-20T06:06:17.381Z,79.33
2023-02-20T06:08:45.059Z,80.15
2023-02-20T06:11:13.442Z,79.69
2023-02-20T06:13:41.939Z,79.96
2023-02-20T06:16:09.963Z,79.24
2023-02-20T06:18:41.845Z,79.11
2023-02-20T06:21:12.593Z,78.69
2023-02-20T06:23:40.293Z,78.30
2023-02-20T06:26:07.852Z,78.11
2023-02-20T06:28:35.275Z,77.69
2023-02-20T06:31:02.659Z,77.78
2023-02-20T06:33:30.360Z,78.03
2023-02-20T06:35:57.853Z,77.81
2023-02-20T06:38:25.813Z,78.25
2023-02-20T06:40:52.737Z,78.67
2023-02-20T06:43:20.100Z,78.22
2023-02-20T06:45:47.833Z,77.73
2023-02-20T06:48:15.400Z,78.27
2023-02-20T06:50:42.612Z,78.88
2023-02-20T06:53:12.687Z,79.21
2023-02-20T06:55:39.598Z,79.11
2023-02-20T06:58:06.604Z,78.80
2023-02-20T07:00:33.505Z,78.76
2023-02-20T07:03:00.568Z,78.81
2023-02-20T07:05:27.441Z,78.90
2023-02-20T07:07:54.577Z,78.81
2023-02-20T07:10:21.661Z,79.11
2023-02-20T07:12:48.775Z,79.13
2023-02-20T07:15:15.809Z,78.77
2023-02-20T07:17:42.717Z,78.54
2023-02-20T07:20:10.727Z,78.15
2023-02-20T07:22:37.921Z,78.56
2023-02-20T07:25:05.366Z,78.67
2023-02-20T07:27:32.705Z,78.80
2023-02-20T07:29:59.664Z,78.65
2023-02-20T07:32:26.541Z,78.34
2023-02-20T07:35:03.707Z,78.80
2023-02-20T07:37:31.907Z,78.58
2023-02-20T07:39:58.915Z,79.24
2023-02-20T07:42:26.538Z,79.19
2023-02-20T07:44:53.292Z,79.04
2023-02-20T07:47:20.363Z,78.86
2023-02-20T07:49:47.666Z,79.36
2023-02-20T07:52:15.237Z,79.33
2023-02-20T07:54:42.393Z,78.86
2023-02-20T07:57:09.790Z,78.86
2023-02-20T07:59:39.025Z,79.64
2023-02-20T08:02:06.047Z,79.10
2023-02-20T08:04:33.368Z,79.04
2023-02-20T08:07:00.304Z,78.70
2023-02-20T08:09:27.258Z,79.33
2023-02-20T08:11:54.178Z,79.52
2023-02-20T08:14:21.022Z,79.30
2023-02-20T08:16:47.783Z,80.06
2023-02-20T08:19:14.861Z,80.00
2023-02-20T08:21:42.084Z,79.23
2023-02-20T08:24:09.077Z,80.15
2023-02-20T08:26:36.018Z,79.71
2023-02-20T08:29:02.728Z,80.01
2023-02-20T08:31:32.956Z,79.85
2023-02-20T08:34:01.639Z,79.86
2023-02-20T08:36:30.898Z,79.68
2023-02-20T08:39:00.860Z,79.93
2023-02-20T08:41:28.052Z,79.94
2023-02-20T08:43:54.930Z,79.85
2023-02-20T08:46:22.399Z,80.34
2023-02-20T08:48:49.537Z,80.56
2023-02-20T08:51:19.770Z,80.18
2023-02-20T08:53:46.801Z,81.14
2023-02-20T08:56:14.327Z,80.81
2023-02-20T08:58:41.407Z,81.00
2023-02-20T09:01:08.293Z,80.73
2023-02-20T09:03:38.793Z,80.58
2023-02-20T09:06:06.271Z,80.63
2023-02-20T09:08:33.590Z,80.34
2023-02-20T09:11:00.724Z,80.40
2023-02-20T09:13:27.755Z,81.13
2023-02-20T09:15:54.894Z,81.00
2023-02-20T09:18:21.758Z,80.34
2023-02-20T09:20:48.717Z,80.70
2023-02-20T09:23:15.571Z,80.87
2023-02-20T09:25:42.502Z,81.21
2023-02-20T09:28:09.482Z,80.63
2023-02-20T09:30:36.404Z,80.21
2023-02-20T09:33:03.358Z,80.28
2023-02-20T09:35:33.059Z,80.33
2023-02-20T09:38:00.434Z,80.62
2023-02-20T09:40:31.978Z,79.98
2023-02-20T09:43:04.761Z,80.25
2023-02-20T09:45:34.788Z,79.77
2023-02-20T09:48:23.627Z,80.00
2023-02-20T09:51:22.638Z,79.84
2023-02-20T09:54:10.622Z,79.98
2023-02-20T09:56:42.392Z,79.60
2023-02-20T09:59:38.274Z,79.67
2023-02-20T10:02:18.559Z,79.97
2023-02-20T10:05:00.984Z,79.94
2023-02-20T10:07:36.943Z,80.22
2023-02-20T10:10:20.928Z,79.19
2023-02-20T10:13:09.724Z,79.46
2023-02-20T10:16:01.818Z,79.95
2023-02-20T10:18:54.971Z,79.71
2023-02-20T10:21:56.983Z,78.93
2023-02-20T10:24:56.231Z,79.14
2023-02-20T10:27:43.275Z,78.77
2023-02-20T10:30:19.290Z,79.25
2023-02-20T10:32:53.294Z,79.37
2023-02-20T10:35:27.742Z,79.56
2023-02-20T10:37:58.457Z,79.16
2023-02-20T10:40:39.109Z,78.82
2023-02-20T10:43:34.044Z,78.10
2023-02-20T10:46:19.325Z,78.80
2023-02-20T10:48:47.568Z,78.26
2023-02-20T10:51:28.292Z,78.89
2023-02-20T10:54:17.811Z,78.83
2023-02-20T10:57:01.052Z,79.19
2023-02-20T10:59:40.660Z,79.00
2023-02-20T11:02:19.270Z,78.61
2023-02-20T11:04:57.655Z,78.86
2023-02-20T11:07:24.887Z,78.97
2023-02-20T11:09:51.671Z,78.95
2023-02-20T11:12:34.886Z,78.52
2023-02-20T11:15:16.164Z,78.61
2023-02-20T11:17:44.752Z,78.55
2023-02-20T11:20:33.033Z,77.28
2023-02-20T11:23:01.726Z,76.58
2023-02-20T11:25:36.930Z,76.23
2023-02-20T11:28:23.947Z,76.20
2023-02-20T11:31:05.400Z,75.30
2023-02-20T11:33:36.311Z,75.78
2023-02-20T11:36:35.272Z,75.74
2023-02-20T11:39:04.402Z,75.43
2023-02-20T11:41:34.574Z,75.24
2023-02-20T11:44:10.470Z,75.20
2023-02-20T11:46:37.554Z,74.68
2023-02-20T11:49:12.457Z,75.05
2023-02-20T11:51:45.783Z,74.87
2023-02-20T11:54:19.728Z,73.82
2023-02-20T11:57:07.176Z,74.59
2023-02-20T11:59:40.743Z,74.61
2023-02-20T12:02:33.888Z,74.91
2023-02-20T12:05:06.763Z,74.61
2023-02-20T12:07:43.484Z,74.56
2023-02-20T12:10:23.380Z,73.81
2023-02-20T12:12:50.280Z,73.75
2023-02-20T12:15:19.692Z,73.51
2023-02-20T12:17:58.375Z,73.75
2023-02-20T12:20:29.080Z,73.91
2023-02-20T12:22:55.996Z,74.46
2023-02-20T12:25:53.998Z,74.07
2023-02-20T12:28:49.331Z,73.76
2023-02-20T12:31:37.065Z,73.93
2023-02-20T12:34:11.815Z,74.76
2023-02-20T12:36:43.579Z,74.17
2023-02-20T12:39:43.470Z,74.86
2023-02-20T12:42:17.571Z,74.45
2023-02-20T12:45:07.168Z,74.55
2023-02-20T12:47:40.324Z,74.55
2023-02-20T12:50:49.538Z,74.38
2023-02-20T12:53:36.558Z,75.14
2023-02-20T12:56:44.230Z,74.98
2023-02-20T12:59:31.443Z,74.41
2023-02-20T13:02:15.884Z,74.85
2023-02-20T13:04:48.917Z,74.54
2023-02-20T13:07:28.194Z,74.83
2023-02-20T13:10:07.563Z,75.11
2023-02-20T13:12:34.406Z,75.08
2023-02-20T13:15:07.719Z,74.83
2023-02-20T13:17:45.686Z,74.80
2023-02-20T13:20:35.468Z,74.75
2023-02-20T13:23:05.896Z,75.17
2023-02-20T13:25:47.081Z,75.24
2023-02-20T13:28:33.253Z,74.74
2023-02-20T13:31:17.504Z,75.20
2023-02-20T13:34:10.567Z,75.24
2023-02-20T13:36:49.359Z,75.29
2023-02-20T13:39:19.114Z,75.29
2023-02-20T13:41:55.178Z,76.35
2023-02-20T13:44:40.478Z,75.32
2023-02-20T13:47:26.988Z,74.81
2023-02-20T13:49:58.939Z,75.64
2023-02-20T13:52:45.149Z,76.08
2023-02-20T13:55:13.874Z,75.49
2023-02-20T13:57:49.859Z,75.68
2023-02-20T14:00:47.595Z,75.84
2023-02-20T14:03:22.681Z,75.50
2023-02-20T14:06:08.609Z,75.78
2023-02-20T14:08:37.919Z,75.75
2023-02-20T14:11:24.269Z,75.42
2023-02-20T14:13:53.689Z,75.76
2023-02-20T14:16:34.151Z,75.96
2023-02-20T14:19:21.182Z,76.45
2023-02-20T14:21:48.412Z,75.49
2023-02-20T14:24:28.066Z,75.66
2023-02-20T14:26:57.231Z,75.85
2023-02-20T14:29:31.940Z,76.18
2023-02-20T14:32:01.170Z,76.05
2023-02-20T14:34:28.234Z,75.55
2023-02-20T14:37:15.324Z,75.97
2023-02-20T14:39:58.463Z,76.65
2023-02-20T14:42:26.563Z,76.21
2023-02-20T14:45:02.939Z,76.37
2023-02-20T14:47:32.058Z,75.79
2023-02-20T14:50:16.561Z,76.54
2023-02-20T14:52:43.660Z,76.57
2023-02-20T14:55:17.919Z,76.37
2023-02-20T14:57:44.929Z,75.94
2023-02-20T15:00:27.184Z,76.79
2023-02-20T15:02:56.552Z,77.06
2023-02-20T15:05:32.918Z,76.50
2023-02-20T15:08:15.534Z,76.66
2023-02-20T15:10:46.367Z,77.07
2023-02-20T15:13:19.732Z,77.93
2023-02-20T15:15:50.939Z,78.98
2023-02-20T15:18:37.681Z,79.64
2023-02-20T15:21:05.817Z,79.74
2023-02-20T15:23:33.678Z,79.70
2023-02-20T15:26:30.219Z,81.02
2023-02-20T15:29:19.019Z,81.95
2023-02-20T15:32:04.226Z,81.99
2023-02-20T15:34:38.345Z,83.39
2023-02-20T15:37:33.657Z,83.73
2023-02-20T15:40:27.667Z,84.82
2023-02-20T15:42:58.783Z,84.95
2023-02-20T15:45:30.961Z,85.31
2023-02-20T15:47:59.634Z,85.08
2023-02-20T15:50:29.265Z,85.56
2023-02-20T15:52:58.917Z,85.66
2023-02-20T15:55:27.450Z,85.57
2023-02-20T15:57:56.940Z,85.86
2023-02-20T16:00:27.956Z,85.94
2023-02-20T16:02:55.064Z,86.63
2023-02-20T16:05:22.477Z,86.29
2023-02-20T16:07:49.518Z,86.35
2023-02-20T16:10:19.047Z,86.96
2023-02-20T16:12:47.313Z,86.58
2023-02-20T16:15:19.000Z,87.26
2023-02-20T16:17:45.932Z,86.72
2023-02-20T16:20:18.064Z,86.73
2023-02-20T16:22:45.216Z,86.81
2023-02-20T16:25:15.689Z,87.36
2023-02-20T16:27:43.200Z,87.34
2023-02-20T16:30:32.299Z,87.47
2023-02-20T16:33:00.777Z,87.79
2023-02-20T16:35:27.698Z,87.99
2023-02-20T16:37:54.750Z,87.39
2023-02-20T16:40:21.955Z,87.99
2023-02-20T16:42:49.265Z,87.92
2023-02-20T16:45:19.469Z,88.27
2023-02-20T16:47:51.429Z,88.27
2023-02-20T16:50:21.380Z,88.25
2023-02-20T16:52:51.020Z,88.16
2023-02-20T16:55:31.386Z,88.60
2023-02-20T16:57:58.781Z,87.96
2023-02-20T17:00:30.822Z,87.87
2023-02-20T17:02:58.788Z,88.07
2023-02-20T17:05:30.835Z,88.16
2023-02-20T17:07:59.111Z,88.12
2023-02-20T17:10:29.426Z,88.58
2023-02-20T17:12:57.469Z,88.28
2023-02-20T17:15:26.312Z,88.45
2023-02-20T17:17:54.379Z,88.48
2023-02-20T17:20:25.078Z,88.28
2023-02-20T17:23:04.006Z,89.21
2023-02-20T17:25:36.017Z,88.50
2023-02-20T17:28:04.090Z,89.20
2023-02-20T17:30:31.840Z,88.89
2023-02-20T17:32:59.713Z,88.89
2023-02-20T17:35:27.279Z,88.83
2023-02-20T17:37:54.262Z,88.71
2023-02-20T17:40:21.411Z,89.04
2023-02-20T17:42:48.316Z,88.61
2023-02-20T17:45:16.537Z,88.68
2023-02-20T17:47:43.566Z,89.10
2023-02-20T17:50:13.253Z,89.14
2023-02-20T17:52:40.474Z,88.96
2023-02-20T17:55:08.346Z,88.35
2023-02-20T17:57:36.680Z,88.44
2023-02-20T18:00:07.166Z,87.88
2023-02-20T18:02:34.177Z,88.73
2023-02-20T18:05:01.222Z,87.87
2023-02-20T18:07:28.569Z,88.63
2023-02-20T18:09:57.426Z,88.57
2023-02-20T18:12:24.851Z,88.42
2023-02-20T18:14:52.164Z,87.80
2023-02-20T18:17:19.170Z,87.87
2023-02-20T18:19:46.372Z,87.82
2023-02-20T18:22:22.006Z,88.09
2023-02-20T18:24:51.676Z,88.08
2023-02-20T18:27:21.463Z,88.70
2023-02-20T18:29:48.439Z,87.95
2023-02-20T18:32:15.417Z,87.79
2023-02-20T18:34:42.355Z,88.27
2023-02-20T18:37:09.344Z,88.15
2023-02-20T18:39:36.288Z,88.08
2023-02-20T18:42:03.369Z,88.33
2023-02-20T18:44:32.842Z,88.01
2023-02-20T18:47:00.798Z,87.82
2023-02-20T18:49:27.785Z,87.51
2023-02-20T18:51:57.579Z,88.06
2023-02-20T18:54:27.337Z,87.23
2023-02-20T18:56:55.362Z,87.23
2023-02-20T18:59:23.157Z,87.27
2023-02-20T19:01:49.992Z,86.94
2023-02-20T19:04:16.944Z,87.05
2023-02-20T19:06:44.870Z,87.74
2023-02-20T19:09:16.005Z,87.72
2023-02-20T19:11:42.975Z,86.69
2023-02-20T19:14:09.978Z,86.68
2023-02-20T19:16:36.842Z,87.60
2023-02-20T19:19:03.727Z,87.10
2023-02-20T19:21:31.496Z,87.80
2023-02-20T19:23:59.707Z,87.21
2023-02-20T19:26:26.463Z,87.59
2023-02-20T19:28:53.605Z,87.17
2023-02-20T19:31:20.660Z,87.16
2023-02-20T19:33:53.039Z,87.53
2023-02-20T19:36:20.011Z,87.42
2023-02-20T19:38:47.246Z,87.73
2023-02-20T19:41:16.227Z,88.13
2023-02-20T19:43:44.625Z,87.66
2023-02-20T19:46:19.011Z,88.03
2023-02-20T19:48:46.245Z,88.25
2023-02-20T19:51:14.764Z,87.59
2023-02-20T19:53:41.765Z,87.92
2023-02-20T19:56:10.271Z,87.64
2023-02-20T19:58:40.497Z,88.12
2023-02-20T20:01:18.165Z,87.96
2023-02-20T20:03:49.312Z,87.78
2023-02-20T20:06:17.978Z,88.59
2023-02-20T20:09:10.065Z,88.08
2023-02-20T20:11:32.762Z,88.44
2023-02-20T20:13:59.889Z,88.64
2023-02-20T20:16:26.974Z,88.30
2023-02-20T20:18:54.792Z,88.28
2023-02-20T20:21:22.302Z,87.78
2023-02-20T20:23:51.363Z,87.91
2023-02-20T20:26:22.252Z,88.29
2023-02-20T20:28:49.098Z,87.92
2023-02-20T20:31:20.020Z,87.41
2023-02-20T20:33:46.822Z,87.84
2023-02-20T20:36:15.106Z,87.43
2023-02-20T20:38:42.561Z,87.39
2023-02-20T20:41:10.858Z,87.55
2023-02-20T20:43:38.040Z,87.90
2023-02-20T20:46:05.315Z,87.53
2023-02-20T20:48:32.691Z,87.66
2023-02-20T20:50:59.922Z,88.01
2023-02-20T20:53:26.904Z,87.74
2023-02-20T20:55:53.767Z,87.53
2023-02-20T20:58:21.132Z,88.39
2023-02-20T21:00:48.033Z,88.63
2023-02-20T21:03:16.306Z,87.85
2023-02-20T21:05:43.555Z,88.40
2023-02-20T21:08:10.521Z,88.48
2023-02-20T21:10:38.375Z,87.95
2023-02-20T21:13:05.716Z,88.26
2023-02-20T21:15:34.470Z,88.15
2023-02-20T21:18:02.050Z,89.13
2023-02-20T21:20:31.047Z,88.34
2023-02-20T21:22:59.835Z,88.32
2023-02-20T21:25:30.258Z,88.69
2023-02-20T21:28:00.589Z,88.23
2023-02-20T21:30:27.985Z,87.90
2023-02-20T21:32:55.025Z,88.55
2023-02-20T21:35:23.532Z,89.04
2023-02-20T21:37:52.642Z,87.30
2023-02-20T21:40:19.879Z,87.48
2023-02-20T21:43:05.714Z,88.36
2023-02-20T21:45:35.140Z,87.71
2023-02-20T21:48:02.940Z,88.07
2023-02-20T21:50:29.899Z,88.62
2023-02-20T21:52:56.867Z,88.83
2023-02-20T21:55:24.417Z,88.16
2023-02-20T21:57:51.675Z,88.11
2023-02-20T22:00:18.594Z,88.36
2023-02-20T22:02:47.177Z,88.62
2023-02-20T22:05:13.989Z,88.61
2023-02-20T22:08:01.763Z,88.68
2023-02-20T22:10:47.333Z,88.82
2023-02-20T22:13:32.958Z,89.04
2023-02-20T22:16:18.631Z,88.58
2023-02-20T22:19:03.969Z,87.86
2023-02-20T22:21:49.242Z,87.80
2023-02-20T22:24:38.565Z,88.11
2023-02-20T22:27:29.384Z,88.48
2023-02-20T22:30:14.623Z,88.20
2023-02-20T22:33:00.430Z,87.50
2023-02-20T22:35:45.961Z,87.90
2023-02-20T22:38:31.760Z,87.99
2023-02-20T22:41:19.232Z,88.15
2023-02-20T22:44:05.921Z,88.69
2023-02-20T22:46:51.395Z,87.99
2023-02-20T22:49:37.161Z,88.38
2023-02-20T22:52:22.517Z,88.37
2023-02-20T22:55:08.591Z,88.41
2023-02-20T22:57:54.433Z,88.81
2023-02-20T23:00:39.691Z,88.88
2023-02-20T23:03:25.553Z,88.47
2023-02-20T23:06:17.915Z,88.72
2023-02-20T23:09:05.735Z,88.30
2023-02-20T23:11:53.113Z,89.10
2023-02-20T23:14:38.792Z,88.69
2023-02-20T23:17:34.888Z,88.55
2023-02-20T23:20:32.554Z,88.33
2023-02-20T23:23:18.184Z,88.56
2023-02-20T23:26:03.748Z,89.03
2023-02-20T23:28:49.520Z,88.22
2023-02-20T23:31:36.153Z,88.62
2023-02-20T23:34:22.665Z,89.12
2023-02-20T23:37:11.262Z,88.91
2023-02-20T23:39:56.785Z,87.66
2023-02-20T23:42:59.078Z,88.86
2023-02-20T23:45:44.983Z,88.75
2023-02-20T23:48:31.434Z,89.22
2023-02-20T23:51:17.853Z,89.55
2023-02-20T23:54:03.230Z,89.52
2023-02-20T23:56:48.571Z,89.89
2023-02-20T23:59:33.897Z,89.22
